Appleton, WI

6:29 PM CDT en Septiembre 01, 2014 (GMT -0500)
Near Appleton West High School | Change Station
CLOSE
Current Station
Estación meteorológica personal
Location: Appleton, WI
Altura: 814 ft
Estaciones meteorológicas cercanas

Alt 814 ft 44.27 °N, 88.42 °W | Updated 7 seconds ago

Parcialmente nublado
Parcialmente nublado
73.8 ° F
Sensación térmica 74 ° F
N
1.6
Viento Variable Viento desde Oeste
Gusts 3.1 mph

Hoy
Alta -- | Baja -- ° F
--% Posibilidad de precipitaciones
Ayer
Alta -- | Baja -- ° F
Precip. -- pul
6:16 AM 7:29 PM
Creciente, 45% visible
Presión 29.71 pul
Visibilidad 10.0 Millas
Nubes Nubes dispersas 5000 ft
Muy nublado 10000 ft
Índice de calor 74 ° F
Punto de rocío 68 ° F
Humedad 82%
Precipitaciones 0.27 pul
Espesor de la nieve No disponible.
UV 1 de una escala de 12
Polen 3.90 de una escala de 12
Ozono Buena
PM2.5 Buena
Flu Activity No disponible.
METAR KATW 012245Z 26011KT 10SM SCT050 BKN100 23/17 A2971

More Conditions Fewer Conditions

Presión 29.71 pul
Visibilidad 10.0 Millas
Nubes Nubes dispersas 5000 ft
Muy nublado 10000 ft
Índice de calor 74 ° F
Punto de rocío 68 ° F
Humedad 82%
Precipitaciones 0.27 pul
Espesor de la nieve No disponible.
UV 1 de una escala de 12
Polen 3.90 de una escala de 12
Ozono Buena
PM2.5 Buena
Flu Activity No disponible.
METAR KATW 012245Z 26011KT 10SM SCT050 BKN100 23/17 A2971

More Conditions Fewer Conditions

10-Day Weather Forecast

Almanac

Astronomía

Sep. 01, 2014 Salida Puesta
Hora real 6:16 AM CDT 7:29 PM CDT
Crepúsculo civil 5:46 AM CDT 7:59 PM CDT
Crepúsculo náutico 5:10 AM CDT 8:35 PM CDT
Crepúsculo astronómico 4:32 AM CDT 9:13 PM CDT
Luna 1:17 PM CDT 11:15 PM CDT
Horas de luz 14h 13m
Horas de luz
13h 13m
Tomorrow will be 2m 57s shorter.
Creciente, 45% of the Moon is Illuminated
Hoy
Creciente
Sep 2
Cuarto creciente
Sep 8
Luna llena
Sep 15
Cuarto menguante
Sep 24
Nueva

Extremos de hoy

Máximos del estado Bajos del estado

Community

WunderPhotos

Upload Photos

1,749,430 ¡fotos cargadas!

Nearby

Calidad del aire

  Calidad del aire Índice AQ Contaminante
Ayer Buena
OZONE
Ayer Buena
PM2.5
Real Buena
OZONE
Real Buena
PM2.5
Lunes Buena
OZONE
Lunes Buena
PM2.5
Martes Buena
OZONE
Martes Buena
PM2.5

Grosos de nieve

Estación Profundido Altura
No tenemos constancia de nieve nueva.

Actividad de terremotos

Ciudad Distance Mag. Tiempo y dato
No hay informes recientes de la actividad sísmica.
Magnitud mínima muestra es 2,5.

Temperaturas de aguas costeras

Lugar Temperatura
Menominee, MI 71.1 ° F

Estaciones meteorológicas cercanas